createdAt,value
2019-03-25T00:01:50.339Z,4.82
2019-03-25T00:04:17.838Z,4.85
2019-03-25T00:06:45.315Z,4.89
2019-03-25T00:09:12.823Z,4.83
2019-03-25T00:11:40.293Z,4.71
2019-03-25T00:14:07.908Z,4.90
2019-03-25T00:16:35.404Z,5.09
2019-03-25T00:19:03.213Z,5.07
2019-03-25T00:21:30.688Z,5.15
2019-03-25T00:23:58.197Z,5.04
2019-03-25T00:26:25.671Z,5.28
2019-03-25T00:28:53.169Z,5.34
2019-03-25T00:31:20.654Z,5.25
2019-03-25T00:33:48.173Z,5.27
2019-03-25T00:36:15.642Z,5.10
2019-03-25T00:38:43.146Z,5.09
2019-03-25T00:41:10.625Z,5.14
2019-03-25T00:43:41.141Z,5.24
2019-03-25T00:46:08.643Z,5.30
2019-03-25T00:48:36.176Z,5.35
2019-03-25T00:51:03.659Z,5.34
2019-03-25T00:53:31.169Z,5.32
2019-03-25T00:55:58.641Z,5.35
2019-03-25T00:58:26.149Z,5.41
2019-03-25T01:00:53.664Z,5.47
2019-03-25T01:03:21.164Z,5.33
2019-03-25T01:05:48.639Z,5.54
2019-03-25T01:08:16.153Z,5.56
2019-03-25T01:10:43.631Z,5.55
2019-03-25T01:13:11.120Z,5.55
2019-03-25T01:15:38.639Z,5.61
2019-03-25T01:18:16.373Z,5.77
2019-03-25T01:20:35.494Z,5.76
2019-03-25T01:23:02.956Z,5.67
2019-03-25T01:25:30.450Z,5.56
2019-03-25T01:27:57.942Z,5.70
2019-03-25T01:30:26.294Z,5.67
2019-03-25T01:32:53.778Z,5.60
2019-03-25T01:35:21.312Z,5.68
2019-03-25T01:37:48.789Z,5.88
2019-03-25T01:40:16.312Z,5.71
2019-03-25T01:42:43.798Z,5.68
2019-03-25T01:45:11.330Z,5.78
2019-03-25T01:47:38.835Z,5.79
2019-03-25T01:50:07.161Z,5.73
2019-03-25T01:52:34.650Z,5.80
2019-03-25T01:55:12.966Z,5.91
2019-03-25T01:57:31.694Z,5.97
2019-03-25T01:59:59.227Z,5.81
2019-03-25T02:02:26.709Z,5.80
2019-03-25T02:04:54.220Z,5.96
2019-03-25T02:07:21.694Z,6.09
2019-03-25T02:09:49.215Z,6.01
2019-03-25T02:12:16.714Z,6.11
2019-03-25T02:14:44.226Z,5.95
2019-03-25T02:17:11.751Z,6.01
2019-03-25T02:19:39.262Z,6.05
2019-03-25T02:22:06.722Z,5.89
2019-03-25T02:24:34.204Z,5.87
2019-03-25T02:27:01.695Z,5.93
2019-03-25T02:29:29.357Z,6.05
2019-03-25T02:31:56.864Z,6.00
2019-03-25T02:34:24.349Z,6.06
2019-03-25T02:36:51.846Z,6.01
2019-03-25T02:39:19.375Z,6.12
2019-03-25T02:41:46.934Z,6.07
2019-03-25T02:44:14.487Z,6.00
2019-03-25T02:46:41.982Z,6.03
2019-03-25T02:49:09.497Z,6.13
2019-03-25T02:51:36.961Z,6.06
2019-03-25T02:54:04.493Z,6.17
2019-03-25T02:56:32.001Z,6.13
2019-03-25T02:58:59.522Z,6.07
2019-03-25T03:01:27.038Z,6.10
2019-03-25T03:03:54.549Z,6.14
2019-03-25T03:06:22.060Z,6.11
2019-03-25T03:08:49.547Z,6.21
2019-03-25T03:11:17.069Z,6.24
2019-03-25T03:13:44.533Z,6.25
2019-03-25T03:16:12.080Z,6.25
2019-03-25T03:18:39.604Z,6.29
2019-03-25T03:21:07.157Z,6.31
2019-03-25T03:23:34.645Z,6.31
2019-03-25T03:26:02.565Z,6.31
2019-03-25T03:28:30.053Z,6.21
2019-03-25T03:30:57.611Z,6.13
2019-03-25T03:33:25.132Z,6.07
2019-03-25T03:35:52.647Z,5.91
2019-03-25T03:38:20.149Z,5.67
2019-03-25T03:40:47.698Z,5.59
2019-03-25T03:43:15.193Z,5.48
2019-03-25T03:45:42.733Z,5.45
2019-03-25T03:48:10.238Z,5.32
2019-03-25T03:50:39.570Z,5.15
2019-03-25T03:53:07.053Z,5.07
2019-03-25T03:55:37.108Z,5.10
2019-03-25T03:58:04.703Z,4.96
2019-03-25T04:00:33.937Z,4.88
2019-03-25T04:03:01.876Z,4.94
2019-03-25T04:05:29.506Z,4.79
2019-03-25T04:07:57.036Z,4.78
2019-03-25T04:10:24.558Z,4.61
2019-03-25T04:12:52.065Z,4.69
2019-03-25T04:15:26.283Z,4.63
2019-03-25T04:17:53.867Z,4.61
2019-03-25T04:20:21.343Z,4.62
2019-03-25T04:22:48.879Z,4.65
2019-03-25T04:25:16.356Z,4.53
2019-03-25T04:27:43.871Z,4.60
2019-03-25T04:30:11.565Z,4.42
2019-03-25T04:32:39.097Z,4.32
2019-03-25T04:35:06.681Z,4.45
2019-03-25T04:37:34.212Z,4.35
2019-03-25T04:40:01.710Z,4.37
2019-03-25T04:42:29.229Z,4.37
2019-03-25T04:44:56.721Z,4.35
2019-03-25T04:47:24.246Z,4.21
2019-03-25T04:49:51.758Z,4.18
2019-03-25T04:52:19.265Z,4.26
2019-03-25T04:54:46.778Z,4.20
2019-03-25T04:57:14.287Z,4.09
2019-03-25T04:59:41.790Z,4.07
2019-03-25T05:02:09.317Z,4.18
2019-03-25T05:04:36.827Z,4.15
2019-03-25T05:07:04.420Z,4.18
2019-03-25T05:09:31.899Z,4.23
2019-03-25T05:11:59.429Z,4.21
2019-03-25T05:14:26.920Z,4.19
2019-03-25T05:16:54.449Z,4.18
2019-03-25T05:19:21.971Z,4.08
2019-03-25T05:21:49.491Z,4.17
2019-03-25T05:24:16.988Z,4.17
2019-03-25T05:26:51.050Z,4.19
2019-03-25T05:29:13.912Z,4.28
2019-03-25T05:31:41.460Z,4.25
2019-03-25T05:34:09.353Z,4.29
2019-03-25T05:36:36.871Z,4.30
2019-03-25T05:39:06.437Z,4.22
2019-03-25T05:41:33.951Z,4.38
2019-03-25T05:44:01.543Z,4.27
2019-03-25T05:46:29.064Z,4.29
2019-03-25T05:48:56.544Z,4.37
2019-03-25T05:51:24.062Z,4.35
2019-03-25T05:53:51.564Z,4.33
2019-03-25T05:56:19.060Z,4.30
2019-03-25T05:58:46.548Z,4.27
2019-03-25T06:01:14.215Z,4.28
2019-03-25T06:03:41.699Z,4.31
2019-03-25T06:06:09.267Z,4.28
2019-03-25T06:08:36.739Z,4.45
2019-03-25T06:11:04.452Z,4.44
2019-03-25T06:13:31.958Z,4.54
2019-03-25T06:15:59.478Z,4.22
2019-03-25T06:18:27.314Z,4.52
2019-03-25T06:20:54.836Z,4.65
2019-03-25T06:23:22.375Z,4.69
2019-03-25T06:25:49.869Z,4.58
2019-03-25T06:28:17.378Z,4.66
2019-03-25T06:30:44.871Z,4.64
2019-03-25T06:33:12.955Z,4.74
2019-03-25T06:35:40.647Z,4.67
2019-03-25T06:38:08.165Z,4.77
2019-03-25T06:40:35.660Z,4.85
2019-03-25T06:43:03.304Z,4.77
2019-03-25T06:45:30.793Z,4.85
2019-03-25T06:47:58.346Z,4.90
2019-03-25T06:50:25.913Z,4.89
2019-03-25T06:52:53.439Z,4.78
2019-03-25T06:55:20.929Z,4.91
2019-03-25T06:57:48.979Z,4.74
2019-03-25T07:00:16.672Z,5.05
2019-03-25T07:02:44.197Z,5.15
2019-03-25T07:05:11.786Z,5.05
2019-03-25T07:07:39.299Z,5.04
2019-03-25T07:10:07.364Z,5.16
2019-03-25T07:12:35.599Z,5.37
2019-03-25T07:15:03.766Z,5.45
2019-03-25T07:17:31.277Z,5.32
2019-03-25T07:19:58.782Z,5.43
2019-03-25T07:22:26.340Z,5.55
2019-03-25T07:24:53.852Z,5.48
2019-03-25T07:27:21.411Z,5.55
2019-03-25T07:29:48.911Z,5.52
2019-03-25T07:32:16.659Z,5.51
2019-03-25T07:34:44.146Z,5.50
2019-03-25T07:37:11.697Z,5.49
2019-03-25T07:39:39.260Z,5.56
2019-03-25T07:42:06.983Z,5.60
2019-03-25T07:44:34.505Z,5.66
2019-03-25T07:47:02.039Z,5.81
2019-03-25T07:49:29.603Z,5.80
2019-03-25T07:51:57.097Z,5.93
2019-03-25T07:54:24.656Z,5.90
2019-03-25T07:56:52.133Z,5.85
2019-03-25T07:59:20.270Z,5.81
2019-03-25T08:01:47.968Z,5.85
2019-03-25T08:04:15.781Z,5.77
2019-03-25T08:06:43.293Z,5.85
2019-03-25T08:09:10.777Z,5.69
2019-03-25T08:11:38.293Z,5.62
2019-03-25T08:14:05.827Z,5.57
2019-03-25T08:16:33.317Z,5.56
2019-03-25T08:19:02.800Z,5.51
2019-03-25T08:21:30.527Z,5.47
2019-03-25T08:23:58.033Z,5.47
2019-03-25T08:26:25.640Z,5.49
2019-03-25T08:28:53.145Z,5.53
2019-03-25T08:31:20.638Z,5.67
2019-03-25T08:33:48.676Z,5.73
2019-03-25T08:36:16.431Z,5.85
2019-03-25T08:38:43.967Z,5.96
2019-03-25T08:41:11.477Z,6.04
2019-03-25T08:43:39.026Z,6.14
2019-03-25T08:46:06.515Z,6.23
2019-03-25T08:48:34.059Z,6.35
2019-03-25T08:51:01.564Z,6.34
2019-03-25T08:53:29.085Z,6.21
2019-03-25T08:55:56.752Z,6.18
2019-03-25T08:58:24.274Z,6.20
2019-03-25T09:00:52.175Z,6.24
2019-03-25T09:03:19.779Z,6.30
2019-03-25T09:05:47.280Z,6.66
2019-03-25T09:08:14.821Z,6.68
2019-03-25T09:10:42.388Z,6.65
2019-03-25T09:13:09.924Z,6.80
2019-03-25T09:15:37.405Z,6.75
2019-03-25T09:18:04.897Z,6.64
2019-03-25T09:20:32.431Z,6.52
2019-03-25T09:23:00.000Z,6.34
2019-03-25T09:25:28.200Z,6.18
2019-03-25T09:27:57.502Z,6.21
2019-03-25T09:31:15.314Z,6.14
2019-03-25T09:33:43.250Z,6.18
2019-03-25T09:36:10.756Z,6.42
2019-03-25T09:38:38.397Z,6.46
2019-03-25T09:41:06.346Z,6.69
2019-03-25T09:43:33.923Z,6.78
2019-03-25T09:46:01.440Z,6.81
2019-03-25T09:48:29.070Z,6.99
2019-03-25T09:50:56.582Z,7.16
2019-03-25T09:53:24.089Z,7.10
2019-03-25T09:55:51.651Z,7.29
2019-03-25T09:58:19.177Z,7.26
2019-03-25T10:00:46.743Z,7.27
2019-03-25T10:03:14.244Z,7.44
2019-03-25T10:05:41.768Z,7.29
2019-03-25T10:08:09.300Z,7.47
2019-03-25T10:10:36.812Z,7.86
2019-03-25T10:13:04.318Z,7.86
2019-03-25T10:15:31.855Z,7.60
2019-03-25T10:17:59.358Z,7.40
2019-03-25T10:20:26.898Z,6.64
2019-03-25T10:22:54.476Z,6.41
2019-03-25T10:25:22.015Z,6.39
2019-03-25T10:27:49.506Z,6.21
2019-03-25T10:30:18.273Z,6.10
2019-03-25T10:32:45.767Z,5.73
2019-03-25T10:35:13.633Z,5.59
2019-03-25T10:37:41.115Z,5.88
2019-03-25T10:40:09.595Z,6.23
2019-03-25T10:42:37.102Z,6.55
2019-03-25T10:45:04.783Z,6.80
2019-03-25T10:47:32.295Z,6.96
2019-03-25T10:49:59.807Z,7.30
2019-03-25T10:52:27.295Z,7.36
2019-03-25T10:57:22.327Z,7.14
2019-03-25T10:59:49.875Z,7.45
2019-03-25T11:02:17.356Z,7.56
2019-03-25T11:04:44.879Z,7.77
2019-03-25T11:07:12.437Z,7.92
2019-03-25T11:09:39.998Z,8.15
2019-03-25T11:12:07.487Z,8.23
2019-03-25T11:14:34.998Z,8.60
2019-03-25T11:17:02.473Z,8.50
2019-03-25T11:19:30.587Z,8.74
2019-03-25T11:21:58.144Z,8.29
2019-03-25T11:24:25.751Z,8.25
2019-03-25T11:26:53.258Z,8.31
2019-03-25T11:29:20.754Z,8.24
2019-03-25T11:31:48.276Z,8.39
2019-03-25T11:34:15.769Z,8.61
2019-03-25T11:36:43.276Z,9.02
2019-03-25T11:39:10.865Z,8.81
2019-03-25T11:41:38.398Z,8.77
2019-03-25T11:44:05.889Z,8.34
2019-03-25T11:46:33.440Z,8.27
2019-03-25T11:49:00.966Z,8.29
2019-03-25T11:51:28.602Z,8.63
2019-03-25T11:53:56.123Z,9.38
2019-03-25T11:56:23.636Z,9.51
2019-03-25T11:58:51.259Z,9.16
2019-03-25T12:01:18.802Z,9.07
2019-03-25T12:03:46.309Z,7.79
2019-03-25T12:06:13.829Z,6.95
2019-03-25T12:08:41.323Z,7.25
2019-03-25T12:11:08.883Z,7.29
2019-03-25T12:13:36.390Z,7.52
2019-03-25T12:16:04.002Z,7.78
2019-03-25T12:18:31.503Z,7.63
2019-03-25T12:20:59.070Z,7.70
2019-03-25T12:23:26.791Z,7.87
2019-03-25T12:25:54.414Z,8.16
2019-03-25T12:28:21.916Z,8.12
2019-03-25T12:30:49.999Z,7.96
2019-03-25T12:33:17.506Z,7.77
2019-03-25T12:35:45.035Z,7.86
2019-03-25T12:38:12.557Z,8.32
2019-03-25T12:40:40.149Z,8.25
2019-03-25T12:43:07.704Z,8.07
2019-03-25T12:45:35.250Z,7.85
2019-03-25T12:48:02.724Z,8.14
2019-03-25T12:50:30.236Z,8.65
2019-03-25T12:52:57.788Z,8.78
2019-03-25T12:55:25.296Z,9.43
2019-03-25T12:57:52.774Z,9.26
2019-03-25T13:00:34.872Z,10.10
2019-03-25T13:03:02.392Z,10.39
2019-03-25T13:05:30.034Z,10.25
2019-03-25T13:07:57.548Z,10.14
2019-03-25T13:10:25.056Z,9.70
2019-03-25T13:12:52.580Z,9.35
2019-03-25T13:15:20.049Z,9.22
2019-03-25T13:17:47.581Z,9.39
2019-03-25T13:20:15.212Z,9.19
2019-03-25T13:22:42.717Z,9.02
2019-03-25T13:25:10.221Z,8.79
2019-03-25T13:27:37.735Z,8.38
2019-03-25T13:30:06.010Z,7.89
2019-03-25T13:32:33.555Z,7.71
2019-03-25T13:35:01.062Z,7.50
2019-03-25T13:37:28.611Z,7.46
2019-03-25T13:39:56.133Z,7.35
2019-03-25T13:42:23.738Z,7.44
2019-03-25T13:44:51.250Z,7.23
2019-03-25T13:47:18.789Z,7.15
2019-03-25T13:49:46.283Z,7.20
2019-03-25T13:52:13.870Z,7.08
2019-03-25T13:54:41.363Z,6.97
2019-03-25T13:57:09.108Z,6.99
2019-03-25T13:59:36.602Z,7.17
2019-03-25T14:02:04.185Z,7.22
2019-03-25T14:04:32.006Z,7.68
2019-03-25T14:06:59.529Z,7.79
2019-03-25T14:09:27.031Z,7.87
2019-03-25T14:11:54.570Z,8.08
2019-03-25T14:14:22.056Z,7.91
2019-03-25T14:16:49.595Z,7.71
2019-03-25T14:19:17.248Z,7.48
2019-03-25T14:21:44.789Z,7.38
2019-03-25T14:24:13.528Z,7.36
2019-03-25T14:26:41.698Z,7.28
2019-03-25T14:29:09.187Z,7.19
2019-03-25T14:31:36.731Z,7.09
2019-03-25T14:34:04.284Z,6.69
2019-03-25T14:36:31.776Z,6.59
2019-03-25T14:38:59.296Z,6.59
2019-03-25T14:41:26.773Z,6.58
2019-03-25T14:43:54.289Z,6.82
2019-03-25T14:46:21.786Z,7.00
2019-03-25T14:48:49.319Z,7.09
2019-03-25T14:51:16.831Z,7.41
2019-03-25T14:53:45.623Z,7.35
2019-03-25T14:56:13.227Z,7.44
2019-03-25T14:58:40.734Z,7.58
2019-03-25T15:01:08.245Z,7.43
2019-03-25T15:03:35.761Z,7.38
2019-03-25T15:06:03.368Z,7.22
2019-03-25T15:08:30.923Z,7.04
2019-03-25T15:10:58.468Z,6.79
2019-03-25T15:13:26.004Z,6.54
2019-03-25T15:15:53.483Z,6.77
2019-03-25T15:18:21.008Z,7.08
2019-03-25T15:20:48.498Z,7.32
2019-03-25T15:23:16.042Z,7.22
2019-03-25T15:25:43.521Z,7.16
2019-03-25T15:28:11.037Z,6.97
2019-03-25T15:30:38.535Z,7.52
2019-03-25T15:33:06.058Z,7.90
2019-03-25T15:35:33.536Z,7.37
2019-03-25T15:38:01.077Z,7.28
2019-03-25T15:40:28.642Z,7.31
2019-03-25T15:42:56.263Z,7.40
2019-03-25T15:45:23.749Z,7.69
2019-03-25T15:47:51.270Z,7.86
2019-03-25T15:50:18.776Z,7.92
2019-03-25T15:52:46.320Z,7.37
2019-03-25T15:55:13.915Z,7.48
2019-03-25T15:57:41.651Z,7.34
2019-03-25T16:00:12.278Z,7.15
2019-03-25T16:02:40.352Z,7.35
2019-03-25T16:05:08.061Z,7.18
2019-03-25T16:07:35.669Z,7.17
2019-03-25T16:10:04.888Z,7.34
2019-03-25T16:12:32.388Z,7.47
2019-03-25T16:14:59.950Z,7.44
2019-03-25T16:17:27.595Z,7.68
2019-03-25T16:19:55.528Z,8.24
2019-03-25T16:22:23.104Z,8.20
2019-03-25T16:24:50.616Z,8.35
2019-03-25T16:27:18.133Z,7.90
2019-03-25T16:29:45.672Z,7.77
2019-03-25T16:32:13.343Z,7.81
2019-03-25T16:34:40.893Z,7.67
2019-03-25T16:37:08.475Z,7.71
2019-03-25T16:39:35.982Z,7.83
2019-03-25T16:42:03.471Z,7.81
2019-03-25T16:44:31.175Z,7.84
2019-03-25T16:46:58.692Z,7.70
2019-03-25T16:49:26.256Z,7.55
2019-03-25T16:51:53.772Z,7.58
2019-03-25T16:54:21.434Z,7.63
2019-03-25T16:56:48.954Z,7.73
2019-03-25T16:59:16.487Z,7.66
2019-03-25T17:01:44.021Z,7.72
2019-03-25T17:04:11.554Z,7.74
2019-03-25T17:06:39.036Z,7.79
2019-03-25T17:09:06.885Z,7.75
2019-03-25T17:11:34.558Z,7.79
2019-03-25T17:14:02.089Z,7.74
2019-03-25T17:16:29.577Z,7.81
2019-03-25T17:18:57.089Z,7.74
2019-03-25T17:21:24.649Z,7.78
2019-03-25T17:23:52.196Z,7.86
2019-03-25T17:26:19.721Z,7.49
2019-03-25T17:28:47.267Z,7.66
2019-03-25T17:31:20.885Z,7.67
2019-03-25T17:33:44.265Z,7.68
2019-03-25T17:36:11.909Z,7.68
2019-03-25T17:38:39.406Z,7.48
2019-03-25T17:41:06.947Z,7.46
2019-03-25T17:43:34.462Z,7.36
2019-03-25T17:46:02.047Z,7.34
2019-03-25T17:48:29.566Z,7.34
2019-03-25T17:50:57.103Z,7.31
2019-03-25T17:53:24.617Z,7.17
2019-03-25T17:55:52.167Z,7.13
2019-03-25T17:58:19.708Z,7.13
2019-03-25T18:01:03.402Z,7.15
2019-03-25T18:03:30.899Z,7.02
2019-03-25T18:05:58.434Z,7.03
2019-03-25T18:08:25.900Z,7.08
2019-03-25T18:10:53.416Z,7.13
2019-03-25T18:13:22.598Z,7.03
2019-03-25T18:15:50.328Z,6.97
2019-03-25T18:18:17.803Z,7.01
2019-03-25T18:20:45.331Z,6.99
2019-03-25T18:23:12.909Z,6.89
2019-03-25T18:25:40.421Z,6.97
2019-03-25T18:28:07.960Z,6.88
2019-03-25T18:30:35.514Z,6.79
2019-03-25T18:33:03.014Z,6.63
2019-03-25T18:35:30.555Z,6.68
2019-03-25T18:37:58.253Z,6.69
2019-03-25T18:40:25.869Z,6.60
2019-03-25T18:42:53.362Z,6.59
2019-03-25T18:45:21.346Z,6.50
2019-03-25T18:47:48.862Z,6.46
2019-03-25T18:50:16.407Z,6.45
2019-03-25T18:52:44.058Z,6.42
2019-03-25T18:55:11.843Z,6.35
2019-03-25T18:57:39.366Z,6.41
2019-03-25T19:00:07.343Z,6.44
2019-03-25T19:02:34.897Z,6.38
2019-03-25T19:05:03.542Z,6.33
2019-03-25T19:07:31.022Z,6.22
2019-03-25T19:09:59.146Z,6.13
2019-03-25T19:12:26.692Z,6.31
2019-03-25T19:14:54.196Z,6.14
2019-03-25T19:17:21.765Z,5.85
2019-03-25T19:19:49.310Z,6.07
2019-03-25T19:22:16.855Z,6.06
2019-03-25T19:24:44.361Z,5.93
2019-03-25T19:27:11.949Z,5.83
2019-03-25T19:29:39.457Z,5.92
2019-03-25T19:32:07.249Z,5.98
2019-03-25T19:34:34.971Z,5.79
2019-03-25T19:37:03.063Z,5.82
2019-03-25T19:39:30.625Z,5.79
2019-03-25T19:41:58.251Z,5.78
2019-03-25T19:44:25.756Z,5.73
2019-03-25T19:46:53.295Z,5.63
2019-03-25T19:49:20.776Z,5.58
2019-03-25T19:51:48.312Z,5.62
2019-03-25T19:54:15.771Z,5.71
2019-03-25T19:56:43.326Z,5.72
2019-03-25T19:59:10.843Z,5.58
2019-03-25T20:01:38.413Z,5.67
2019-03-25T20:04:05.918Z,5.59
2019-03-25T20:06:33.436Z,5.51
2019-03-25T20:09:00.924Z,5.64
2019-03-25T20:11:28.499Z,5.44
2019-03-25T20:13:55.997Z,5.54
2019-03-25T20:16:23.590Z,5.61
2019-03-25T20:18:51.129Z,5.59
2019-03-25T20:21:18.682Z,5.49
2019-03-25T20:23:46.193Z,5.52
2019-03-25T20:26:13.751Z,5.43
2019-03-25T20:28:41.236Z,5.32
2019-03-25T20:31:08.814Z,5.42
2019-03-25T20:33:36.375Z,5.34
2019-03-25T20:36:04.023Z,5.33
2019-03-25T20:38:31.491Z,5.35
2019-03-25T20:40:59.081Z,5.16
2019-03-25T20:43:26.601Z,5.22
2019-03-25T20:45:54.066Z,5.23
2019-03-25T20:48:21.573Z,5.20
2019-03-25T20:50:49.113Z,5.22
2019-03-25T20:53:16.641Z,5.30
2019-03-25T20:55:44.189Z,5.27
2019-03-25T20:58:11.792Z,5.15
2019-03-25T21:00:50.052Z,5.18
2019-03-25T21:03:17.687Z,5.14
2019-03-25T21:05:45.300Z,5.14
2019-03-25T21:08:12.799Z,5.06
2019-03-25T21:10:40.383Z,5.08
2019-03-25T21:13:07.949Z,5.01
2019-03-25T21:15:35.462Z,5.13
2019-03-25T21:18:03.033Z,5.12
2019-03-25T21:20:30.687Z,4.93
2019-03-25T21:22:58.318Z,5.02
2019-03-25T21:25:25.805Z,4.95
2019-03-25T21:27:53.365Z,5.02
2019-03-25T21:30:20.975Z,5.05
2019-03-25T21:32:58.051Z,4.91
2019-03-25T21:35:18.071Z,4.96
2019-03-25T21:37:45.609Z,4.96
2019-03-25T21:40:13.105Z,4.98
2019-03-25T21:42:40.698Z,5.09
2019-03-25T21:45:08.737Z,5.21
2019-03-25T21:47:36.338Z,5.17
2019-03-25T21:50:04.155Z,5.23
2019-03-25T21:52:31.731Z,5.23
2019-03-25T21:54:59.227Z,5.35
2019-03-25T21:57:26.878Z,5.35
2019-03-25T21:59:54.374Z,5.45
2019-03-25T22:02:21.908Z,5.36
2019-03-25T22:04:49.399Z,5.47
2019-03-25T22:07:16.933Z,5.56
2019-03-25T22:09:44.435Z,5.58
2019-03-25T22:12:11.959Z,5.56
2019-03-25T22:14:39.446Z,5.65
2019-03-25T22:17:06.960Z,5.56
2019-03-25T22:19:34.448Z,5.67
2019-03-25T22:22:01.963Z,5.65
2019-03-25T22:24:29.505Z,5.69
2019-03-25T22:26:56.989Z,5.78
2019-03-25T22:29:24.587Z,5.78
2019-03-25T22:31:52.095Z,5.84
2019-03-25T22:34:19.608Z,5.95
2019-03-25T22:36:47.102Z,5.99
2019-03-25T22:39:14.635Z,5.85
2019-03-25T22:41:42.118Z,5.80
2019-03-25T22:44:09.641Z,5.79
2019-03-25T22:46:37.120Z,5.91
2019-03-25T22:49:04.702Z,5.94
2019-03-25T22:51:33.255Z,6.08
2019-03-25T22:54:03.300Z,5.97
2019-03-25T22:56:30.809Z,5.85
2019-03-25T22:58:58.322Z,5.91
2019-03-25T23:01:25.902Z,5.66
2019-03-25T23:03:53.428Z,5.85
2019-03-25T23:06:20.922Z,5.79
2019-03-25T23:08:48.436Z,5.94
2019-03-25T23:11:15.926Z,5.78
2019-03-25T23:13:43.451Z,5.88
2019-03-25T23:16:11.132Z,5.75
2019-03-25T23:18:38.671Z,5.45
2019-03-25T23:21:06.172Z,5.50
2019-03-25T23:23:33.725Z,5.41
2019-03-25T23:26:01.199Z,5.40
2019-03-25T23:28:28.714Z,5.28
2019-03-25T23:30:56.235Z,5.23
2019-03-25T23:33:23.776Z,5.20
2019-03-25T23:35:51.276Z,5.04
2019-03-25T23:38:18.814Z,5.17
2019-03-25T23:40:46.338Z,5.09
2019-03-25T23:43:13.851Z,5.10
2019-03-25T23:45:41.348Z,5.17
2019-03-25T23:48:08.873Z,5.13
2019-03-25T23:50:36.388Z,5.15
2019-03-25T23:53:03.884Z,5.29
2019-03-25T23:55:31.428Z,5.29
2019-03-25T23:57:58.939Z,5.32
